sensor_id;sensor_type;location;lat;lon;timestamp;temperature;humidity
16066;DHT22;8137;48.952;8.970;2023-07-31T00:01:03;14.50;99.90
16066;DHT22;8137;48.952;8.970;2023-07-31T00:03:29;14.50;99.90
16066;DHT22;8137;48.952;8.970;2023-07-31T00:05:54;14.50;99.90
16066;DHT22;8137;48.952;8.970;2023-07-31T00:08:20;14.50;99.90
16066;DHT22;8137;48.952;8.970;2023-07-31T00:10:46;14.40;99.90
16066;DHT22;8137;48.952;8.970;2023-07-31T00:13:11;14.40;99.90
16066;DHT22;8137;48.952;8.970;2023-07-31T00:15:37;14.30;99.90
16066;DHT22;8137;48.952;8.970;2023-07-31T00:18:02;14.30;99.90
16066;DHT22;8137;48.952;8.970;2023-07-31T00:20:28;14.20;99.90
16066;DHT22;8137;48.952;8.970;2023-07-31T00:22:54;14.20;99.90
16066;DHT22;8137;48.952;8.970;2023-07-31T00:25:19;14.20;99.90
16066;DHT22;8137;48.952;8.970;2023-07-31T00:27:45;14.20;99.90
16066;DHT22;8137;48.952;8.970;2023-07-31T00:30:11;14.20;99.90
16066;DHT22;8137;48.952;8.970;2023-07-31T00:32:37;14.20;99.90
16066;DHT22;8137;48.952;8.970;2023-07-31T00:35:03;14.10;99.90
16066;DHT22;8137;48.952;8.970;2023-07-31T00:37:28;14.10;99.90
16066;DHT22;8137;48.952;8.970;2023-07-31T00:39:54;14.10;99.90
16066;DHT22;8137;48.952;8.970;2023-07-31T00:42:19;14.00;99.90
16066;DHT22;8137;48.952;8.970;2023-07-31T00:44:45;14.00;99.90
16066;DHT22;8137;48.952;8.970;2023-07-31T00:47:11;14.00;99.90
16066;DHT22;8137;48.952;8.970;2023-07-31T00:49:36;14.00;99.90
16066;DHT22;8137;48.952;8.970;2023-07-31T00:52:03;14.00;99.90
16066;DHT22;8137;48.952;8.970;2023-07-31T00:54:28;14.00;99.90
16066;DHT22;8137;48.952;8.970;2023-07-31T00:56:54;14.00;99.90
16066;DHT22;8137;48.952;8.970;2023-07-31T00:59:20;14.00;99.90
16066;DHT22;8137;48.952;8.970;2023-07-31T01:01:46;14.10;99.90
16066;DHT22;8137;48.952;8.970;2023-07-31T01:04:12;14.10;99.90
16066;DHT22;8137;48.952;8.970;2023-07-31T01:09:34;14.20;99.90
16066;DHT22;8137;48.952;8.970;2023-07-31T01:12:03;14.10;99.90
16066;DHT22;8137;48.952;8.970;2023-07-31T01:14:29;14.10;99.90
16066;DHT22;8137;48.952;8.970;2023-07-31T01:16:55;14.10;99.90
16066;DHT22;8137;48.952;8.970;2023-07-31T01:19:25;14.20;99.90
16066;DHT22;8137;48.952;8.970;2023-07-31T01:25:14;14.20;99.90
16066;DHT22;8137;48.952;8.970;2023-07-31T01:28:10;14.30;99.90
16066;DHT22;8137;48.952;8.970;2023-07-31T01:30:46;14.20;99.90
16066;DHT22;8137;48.952;8.970;2023-07-31T01:33:15;14.30;99.90
16066;DHT22;8137;48.952;8.970;2023-07-31T01:35:44;14.20;99.90
16066;DHT22;8137;48.952;8.970;2023-07-31T01:38:10;14.20;99.90
16066;DHT22;8137;48.952;8.970;2023-07-31T01:40:36;14.20;99.90
16066;DHT22;8137;48.952;8.970;2023-07-31T01:43:02;14.20;99.90
16066;DHT22;8137;48.952;8.970;2023-07-31T01:45:27;14.10;99.90
16066;DHT22;8137;48.952;8.970;2023-07-31T01:47:53;14.10;99.90
16066;DHT22;8137;48.952;8.970;2023-07-31T01:50:18;14.00;99.90
16066;DHT22;8137;48.952;8.970;2023-07-31T01:52:44;14.00;99.90
16066;DHT22;8137;48.952;8.970;2023-07-31T01:55:09;14.10;99.90
16066;DHT22;8137;48.952;8.970;2023-07-31T01:57:36;14.10;99.90
16066;DHT22;8137;48.952;8.970;2023-07-31T02:00:03;14.10;99.90
16066;DHT22;8137;48.952;8.970;2023-07-31T02:02:29;14.10;99.90
16066;DHT22;8137;48.952;8.970;2023-07-31T02:04:54;14.10;99.90
16066;DHT22;8137;48.952;8.970;2023-07-31T02:07:20;14.10;99.90
16066;DHT22;8137;48.952;8.970;2023-07-31T02:09:45;14.10;99.90
16066;DHT22;8137;48.952;8.970;2023-07-31T02:12:13;14.10;99.90
16066;DHT22;8137;48.952;8.970;2023-07-31T02:14:40;14.10;99.90
16066;DHT22;8137;48.952;8.970;2023-07-31T02:17:06;14.10;99.90
16066;DHT22;8137;48.952;8.970;2023-07-31T02:19:31;14.20;99.90
16066;DHT22;8137;48.952;8.970;2023-07-31T02:21:57;14.10;99.90
16066;DHT22;8137;48.952;8.970;2023-07-31T02:24:23;14.20;99.90
16066;DHT22;8137;48.952;8.970;2023-07-31T02:26:49;14.20;99.90
16066;DHT22;8137;48.952;8.970;2023-07-31T02:29:14;14.20;99.90
16066;DHT22;8137;48.952;8.970;2023-07-31T02:31:40;14.20;99.90
16066;DHT22;8137;48.952;8.970;2023-07-31T02:34:06;14.20;99.90
16066;DHT22;8137;48.952;8.970;2023-07-31T02:36:31;14.20;99.90
16066;DHT22;8137;48.952;8.970;2023-07-31T02:38:57;14.30;99.90
16066;DHT22;8137;48.952;8.970;2023-07-31T02:41:22;14.30;99.90
16066;DHT22;8137;48.952;8.970;2023-07-31T02:43:48;14.30;99.90
16066;DHT22;8137;48.952;8.970;2023-07-31T02:46:14;14.30;99.90
16066;DHT22;8137;48.952;8.970;2023-07-31T02:48:39;14.30;99.90
16066;DHT22;8137;48.952;8.970;2023-07-31T02:51:05;14.30;99.90
16066;DHT22;8137;48.952;8.970;2023-07-31T02:53:30;14.30;99.90
16066;DHT22;8137;48.952;8.970;2023-07-31T02:55:56;14.40;99.90
16066;DHT22;8137;48.952;8.970;2023-07-31T02:58:21;14.40;99.90
16066;DHT22;8137;48.952;8.970;2023-07-31T03:00:47;14.40;99.90
16066;DHT22;8137;48.952;8.970;2023-07-31T03:03:13;14.40;99.90
16066;DHT22;8137;48.952;8.970;2023-07-31T03:05:38;14.40;99.90
16066;DHT22;8137;48.952;8.970;2023-07-31T03:08:04;14.30;99.90
16066;DHT22;8137;48.952;8.970;2023-07-31T03:10:29;14.30;99.90
16066;DHT22;8137;48.952;8.970;2023-07-31T03:12:55;14.20;99.90
16066;DHT22;8137;48.952;8.970;2023-07-31T03:15:20;14.30;99.90
16066;DHT22;8137;48.952;8.970;2023-07-31T03:17:46;14.20;99.90
16066;DHT22;8137;48.952;8.970;2023-07-31T03:20:12;14.30;99.90
16066;DHT22;8137;48.952;8.970;2023-07-31T03:22:37;14.30;99.90
16066;DHT22;8137;48.952;8.970;2023-07-31T03:25:03;14.30;99.90
16066;DHT22;8137;48.952;8.970;2023-07-31T03:27:29;14.30;99.90
16066;DHT22;8137;48.952;8.970;2023-07-31T03:29:55;14.20;99.90
16066;DHT22;8137;48.952;8.970;2023-07-31T03:32:20;14.20;99.90
16066;DHT22;8137;48.952;8.970;2023-07-31T03:34:46;14.20;99.90
16066;DHT22;8137;48.952;8.970;2023-07-31T03:37:12;14.20;99.90
16066;DHT22;8137;48.952;8.970;2023-07-31T03:39:37;14.20;99.90
16066;DHT22;8137;48.952;8.970;2023-07-31T03:42:03;14.20;99.90
16066;DHT22;8137;48.952;8.970;2023-07-31T03:44:29;14.20;99.90
16066;DHT22;8137;48.952;8.970;2023-07-31T03:46:55;14.20;99.90
16066;DHT22;8137;48.952;8.970;2023-07-31T03:49:20;14.20;99.90
16066;DHT22;8137;48.952;8.970;2023-07-31T03:51:46;14.20;99.90
16066;DHT22;8137;48.952;8.970;2023-07-31T03:54:11;14.20;99.90
16066;DHT22;8137;48.952;8.970;2023-07-31T03:56:38;14.20;99.90
16066;DHT22;8137;48.952;8.970;2023-07-31T03:59:04;14.20;99.90
16066;DHT22;8137;48.952;8.970;2023-07-31T04:01:30;14.20;99.90
16066;DHT22;8137;48.952;8.970;2023-07-31T04:03:56;14.20;99.90
16066;DHT22;8137;48.952;8.970;2023-07-31T04:06:21;14.20;99.90
16066;DHT22;8137;48.952;8.970;2023-07-31T04:08:47;14.30;99.90
16066;DHT22;8137;48.952;8.970;2023-07-31T04:11:12;14.30;99.90
16066;DHT22;8137;48.952;8.970;2023-07-31T04:13:38;14.30;99.90
16066;DHT22;8137;48.952;8.970;2023-07-31T04:16:04;14.30;99.90
16066;DHT22;8137;48.952;8.970;2023-07-31T04:18:31;14.40;99.90
16066;DHT22;8137;48.952;8.970;2023-07-31T04:20:57;14.40;99.90
16066;DHT22;8137;48.952;8.970;2023-07-31T04:23:27;14.40;99.90
16066;DHT22;8137;48.952;8.970;2023-07-31T04:25:53;14.50;99.90
16066;DHT22;8137;48.952;8.970;2023-07-31T04:28:19;14.60;99.90
16066;DHT22;8137;48.952;8.970;2023-07-31T04:30:44;14.60;99.90
16066;DHT22;8137;48.952;8.970;2023-07-31T04:33:10;14.70;99.90
16066;DHT22;8137;48.952;8.970;2023-07-31T04:35:36;14.70;99.90
16066;DHT22;8137;48.952;8.970;2023-07-31T04:38:01;14.70;99.90
16066;DHT22;8137;48.952;8.970;2023-07-31T04:40:27;14.80;99.90
16066;DHT22;8137;48.952;8.970;2023-07-31T04:42:52;14.90;99.90
16066;DHT22;8137;48.952;8.970;2023-07-31T04:45:18;14.90;99.90
16066;DHT22;8137;48.952;8.970;2023-07-31T04:47:44;14.90;99.90
16066;DHT22;8137;48.952;8.970;2023-07-31T04:50:09;14.90;99.90
16066;DHT22;8137;48.952;8.970;2023-07-31T04:52:35;15.00;99.90
16066;DHT22;8137;48.952;8.970;2023-07-31T04:55:01;15.00;99.90
16066;DHT22;8137;48.952;8.970;2023-07-31T04:57:27;15.00;99.90
16066;DHT22;8137;48.952;8.970;2023-07-31T04:59:52;15.10;99.90
16066;DHT22;8137;48.952;8.970;2023-07-31T05:02:18;15.10;99.90
16066;DHT22;8137;48.952;8.970;2023-07-31T05:04:43;15.10;99.90
16066;DHT22;8137;48.952;8.970;2023-07-31T05:07:09;15.20;99.90
16066;DHT22;8137;48.952;8.970;2023-07-31T05:09:34;15.30;99.90
16066;DHT22;8137;48.952;8.970;2023-07-31T05:12:00;15.40;99.90
16066;DHT22;8137;48.952;8.970;2023-07-31T05:14:26;15.40;99.90
16066;DHT22;8137;48.952;8.970;2023-07-31T05:16:52;15.50;99.90
16066;DHT22;8137;48.952;8.970;2023-07-31T05:19:18;15.60;99.90
16066;DHT22;8137;48.952;8.970;2023-07-31T05:21:43;15.70;99.90
16066;DHT22;8137;48.952;8.970;2023-07-31T05:24:10;15.80;99.90
16066;DHT22;8137;48.952;8.970;2023-07-31T05:26:35;16.00;99.90
16066;DHT22;8137;48.952;8.970;2023-07-31T05:29:01;16.00;99.90
16066;DHT22;8137;48.952;8.970;2023-07-31T05:31:27;16.20;99.90
16066;DHT22;8137;48.952;8.970;2023-07-31T05:33:53;16.30;99.90
16066;DHT22;8137;48.952;8.970;2023-07-31T05:36:19;16.50;99.90
16066;DHT22;8137;48.952;8.970;2023-07-31T05:38:44;16.70;99.90
16066;DHT22;8137;48.952;8.970;2023-07-31T05:41:12;16.90;99.90
16066;DHT22;8137;48.952;8.970;2023-07-31T05:43:37;17.00;99.90
16066;DHT22;8137;48.952;8.970;2023-07-31T05:46:03;17.20;99.90
16066;DHT22;8137;48.952;8.970;2023-07-31T05:48:28;17.50;99.90
16066;DHT22;8137;48.952;8.970;2023-07-31T05:50:54;17.60;99.90
16066;DHT22;8137;48.952;8.970;2023-07-31T05:53:20;17.80;99.90
16066;DHT22;8137;48.952;8.970;2023-07-31T05:55:45;17.90;99.90
16066;DHT22;8137;48.952;8.970;2023-07-31T05:58:11;18.00;99.90
16066;DHT22;8137;48.952;8.970;2023-07-31T06:00:36;18.20;99.90
16066;DHT22;8137;48.952;8.970;2023-07-31T06:03:02;18.20;99.90
16066;DHT22;8137;48.952;8.970;2023-07-31T06:05:28;18.20;99.90
16066;DHT22;8137;48.952;8.970;2023-07-31T06:07:55;18.20;99.90
16066;DHT22;8137;48.952;8.970;2023-07-31T06:10:21;18.40;99.90
16066;DHT22;8137;48.952;8.970;2023-07-31T06:12:46;18.70;99.90
16066;DHT22;8137;48.952;8.970;2023-07-31T06:15:12;19.10;99.90
16066;DHT22;8137;48.952;8.970;2023-07-31T06:17:38;19.50;99.90
16066;DHT22;8137;48.952;8.970;2023-07-31T06:20:03;19.80;99.90
16066;DHT22;8137;48.952;8.970;2023-07-31T06:22:32;19.90;99.90
16066;DHT22;8137;48.952;8.970;2023-07-31T06:24:58;19.90;99.90
16066;DHT22;8137;48.952;8.970;2023-07-31T06:27:24;20.00;99.90
16066;DHT22;8137;48.952;8.970;2023-07-31T06:29:49;20.10;99.90
16066;DHT22;8137;48.952;8.970;2023-07-31T06:32:15;20.20;99.90
16066;DHT22;8137;48.952;8.970;2023-07-31T06:34:40;20.30;99.90
16066;DHT22;8137;48.952;8.970;2023-07-31T06:37:06;20.50;99.90
16066;DHT22;8137;48.952;8.970;2023-07-31T06:39:32;20.60;99.90
16066;DHT22;8137;48.952;8.970;2023-07-31T06:41:57;20.60;99.90
16066;DHT22;8137;48.952;8.970;2023-07-31T06:44:23;20.80;99.90
16066;DHT22;8137;48.952;8.970;2023-07-31T06:46:49;21.00;99.90
16066;DHT22;8137;48.952;8.970;2023-07-31T06:49:14;21.20;99.90
16066;DHT22;8137;48.952;8.970;2023-07-31T06:51:42;21.10;99.90
16066;DHT22;8137;48.952;8.970;2023-07-31T06:54:09;21.00;99.90
16066;DHT22;8137;48.952;8.970;2023-07-31T06:56:34;21.00;99.90
16066;DHT22;8137;48.952;8.970;2023-07-31T06:59:00;20.70;99.90
16066;DHT22;8137;48.952;8.970;2023-07-31T07:01:26;20.70;99.90
16066;DHT22;8137;48.952;8.970;2023-07-31T07:03:53;20.70;99.90
16066;DHT22;8137;48.952;8.970;2023-07-31T07:06:18;20.60;99.90
16066;DHT22;8137;48.952;8.970;2023-07-31T07:08:44;20.60;99.90
16066;DHT22;8137;48.952;8.970;2023-07-31T07:11:10;20.70;99.90
16066;DHT22;8137;48.952;8.970;2023-07-31T07:13:35;20.60;99.90
16066;DHT22;8137;48.952;8.970;2023-07-31T07:16:01;20.70;99.90
16066;DHT22;8137;48.952;8.970;2023-07-31T07:18:26;20.60;99.90
16066;DHT22;8137;48.952;8.970;2023-07-31T07:20:53;20.70;99.90
16066;DHT22;8137;48.952;8.970;2023-07-31T07:23:20;20.70;99.90
16066;DHT22;8137;48.952;8.970;2023-07-31T07:25:46;20.60;99.90
16066;DHT22;8137;48.952;8.970;2023-07-31T07:28:12;20.60;99.90
16066;DHT22;8137;48.952;8.970;2023-07-31T07:30:38;20.80;99.90
16066;DHT22;8137;48.952;8.970;2023-07-31T07:33:04;20.90;99.90
16066;DHT22;8137;48.952;8.970;2023-07-31T07:35:29;21.20;99.90
16066;DHT22;8137;48.952;8.970;2023-07-31T07:37:55;21.40;99.90
16066;DHT22;8137;48.952;8.970;2023-07-31T07:40:21;21.60;99.90
16066;DHT22;8137;48.952;8.970;2023-07-31T07:42:46;21.70;99.90
16066;DHT22;8137;48.952;8.970;2023-07-31T07:45:12;22.00;99.90
16066;DHT22;8137;48.952;8.970;2023-07-31T07:47:40;22.00;99.90
16066;DHT22;8137;48.952;8.970;2023-07-31T07:50:06;22.10;99.90
16066;DHT22;8137;48.952;8.970;2023-07-31T07:52:32;22.00;99.90
16066;DHT22;8137;48.952;8.970;2023-07-31T07:54:58;22.10;99.90
16066;DHT22;8137;48.952;8.970;2023-07-31T07:57:23;22.00;99.90
16066;DHT22;8137;48.952;8.970;2023-07-31T07:59:49;22.60;99.90
16066;DHT22;8137;48.952;8.970;2023-07-31T08:02:14;23.00;99.90
16066;DHT22;8137;48.952;8.970;2023-07-31T08:04:40;23.30;99.90
16066;DHT22;8137;48.952;8.970;2023-07-31T08:07:06;23.60;99.90
16066;DHT22;8137;48.952;8.970;2023-07-31T08:09:31;24.00;99.90
16066;DHT22;8137;48.952;8.970;2023-07-31T08:11:57;24.00;99.90
16066;DHT22;8137;48.952;8.970;2023-07-31T08:14:27;23.60;99.90
16066;DHT22;8137;48.952;8.970;2023-07-31T08:16:53;23.80;99.90
16066;DHT22;8137;48.952;8.970;2023-07-31T08:19:18;23.60;99.90
16066;DHT22;8137;48.952;8.970;2023-07-31T08:21:44;23.60;99.90
16066;DHT22;8137;48.952;8.970;2023-07-31T08:24:10;23.60;99.90
16066;DHT22;8137;48.952;8.970;2023-07-31T08:26:35;23.40;99.90
16066;DHT22;8137;48.952;8.970;2023-07-31T08:29:01;23.00;99.90
16066;DHT22;8137;48.952;8.970;2023-07-31T08:31:26;23.00;99.90
16066;DHT22;8137;48.952;8.970;2023-07-31T08:33:54;22.90;99.90
16066;DHT22;8137;48.952;8.970;2023-07-31T08:36:20;22.70;99.90
16066;DHT22;8137;48.952;8.970;2023-07-31T08:38:46;22.70;99.90
16066;DHT22;8137;48.952;8.970;2023-07-31T08:41:12;22.60;99.90
16066;DHT22;8137;48.952;8.970;2023-07-31T08:43:38;22.60;99.90
16066;DHT22;8137;48.952;8.970;2023-07-31T08:46:05;22.30;99.90
16066;DHT22;8137;48.952;8.970;2023-07-31T08:48:32;22.00;99.90
16066;DHT22;8137;48.952;8.970;2023-07-31T08:50:58;22.10;99.90
16066;DHT22;8137;48.952;8.970;2023-07-31T08:53:24;22.10;99.90
16066;DHT22;8137;48.952;8.970;2023-07-31T08:55:52;22.30;99.90
16066;DHT22;8137;48.952;8.970;2023-07-31T08:58:19;22.40;99.90
16066;DHT22;8137;48.952;8.970;2023-07-31T09:00:46;22.50;99.90
16066;DHT22;8137;48.952;8.970;2023-07-31T09:03:14;22.60;99.90
16066;DHT22;8137;48.952;8.970;2023-07-31T09:05:43;22.70;99.90
16066;DHT22;8137;48.952;8.970;2023-07-31T09:08:10;22.50;99.90
16066;DHT22;8137;48.952;8.970;2023-07-31T09:10:44;22.60;99.90
16066;DHT22;8137;48.952;8.970;2023-07-31T09:13:12;22.70;99.90
16066;DHT22;8137;48.952;8.970;2023-07-31T09:15:37;22.90;99.90
16066;DHT22;8137;48.952;8.970;2023-07-31T09:18:06;23.10;99.90
16066;DHT22;8137;48.952;8.970;2023-07-31T09:20:32;23.10;99.90
16066;DHT22;8137;48.952;8.970;2023-07-31T09:23:10;23.20;99.90
16066;DHT22;8137;48.952;8.970;2023-07-31T09:25:37;23.20;99.90
16066;DHT22;8137;48.952;8.970;2023-07-31T09:28:06;23.20;99.90
16066;DHT22;8137;48.952;8.970;2023-07-31T09:30:45;23.20;99.90
16066;DHT22;8137;48.952;8.970;2023-07-31T09:33:11;23.40;99.90
16066;DHT22;8137;48.952;8.970;2023-07-31T09:35:37;23.50;99.90
16066;DHT22;8137;48.952;8.970;2023-07-31T09:38:09;23.80;99.90
16066;DHT22;8137;48.952;8.970;2023-07-31T09:40:37;23.80;99.90
16066;DHT22;8137;48.952;8.970;2023-07-31T09:43:13;24.00;99.90
16066;DHT22;8137;48.952;8.970;2023-07-31T09:45:43;24.00;99.90
16066;DHT22;8137;48.952;8.970;2023-07-31T09:48:10;23.80;99.90
16066;DHT22;8137;48.952;8.970;2023-07-31T09:50:38;23.80;99.90
16066;DHT22;8137;48.952;8.970;2023-07-31T09:53:07;23.70;99.90
16066;DHT22;8137;48.952;8.970;2023-07-31T09:55:34;23.60;99.90
16066;DHT22;8137;48.952;8.970;2023-07-31T09:58:04;23.50;99.90
16066;DHT22;8137;48.952;8.970;2023-07-31T10:00:30;23.60;99.90
16066;DHT22;8137;48.952;8.970;2023-07-31T10:02:59;23.50;99.90
16066;DHT22;8137;48.952;8.970;2023-07-31T10:05:31;23.30;99.90
16066;DHT22;8137;48.952;8.970;2023-07-31T10:07:59;23.20;99.90
16066;DHT22;8137;48.952;8.970;2023-07-31T10:10:25;23.00;99.90
16066;DHT22;8137;48.952;8.970;2023-07-31T10:12:52;23.20;99.90
16066;DHT22;8137;48.952;8.970;2023-07-31T10:15:19;23.30;99.90
16066;DHT22;8137;48.952;8.970;2023-07-31T10:17:47;23.20;99.90
16066;DHT22;8137;48.952;8.970;2023-07-31T10:20:14;23.20;99.90
16066;DHT22;8137;48.952;8.970;2023-07-31T10:22:42;23.20;99.90
16066;DHT22;8137;48.952;8.970;2023-07-31T10:25:08;23.30;99.90
16066;DHT22;8137;48.952;8.970;2023-07-31T10:27:36;23.30;99.90
16066;DHT22;8137;48.952;8.970;2023-07-31T10:30:04;23.50;99.90
16066;DHT22;8137;48.952;8.970;2023-07-31T10:32:30;23.60;99.90
16066;DHT22;8137;48.952;8.970;2023-07-31T10:34:57;23.60;99.90
16066;DHT22;8137;48.952;8.970;2023-07-31T10:37:27;23.50;99.90
16066;DHT22;8137;48.952;8.970;2023-07-31T10:39:58;23.60;99.90
16066;DHT22;8137;48.952;8.970;2023-07-31T10:42:35;23.50;99.90
16066;DHT22;8137;48.952;8.970;2023-07-31T10:45:07;23.60;99.90
16066;DHT22;8137;48.952;8.970;2023-07-31T10:47:43;23.60;99.90
16066;DHT22;8137;48.952;8.970;2023-07-31T10:52:51;23.60;99.90
16066;DHT22;8137;48.952;8.970;2023-07-31T10:55:40;23.50;99.90
16066;DHT22;8137;48.952;8.970;2023-07-31T11:00:40;23.30;99.90
16066;DHT22;8137;48.952;8.970;2023-07-31T11:03:09;23.40;99.90
16066;DHT22;8137;48.952;8.970;2023-07-31T11:06:03;23.60;99.90
16066;DHT22;8137;48.952;8.970;2023-07-31T11:08:33;23.80;99.90
16066;DHT22;8137;48.952;8.970;2023-07-31T11:13:47;23.30;99.90
16066;DHT22;8137;48.952;8.970;2023-07-31T11:16:22;23.20;99.90
16066;DHT22;8137;48.952;8.970;2023-07-31T11:18:49;23.50;99.90
16066;DHT22;8137;48.952;8.970;2023-07-31T11:21:18;23.80;99.80
16066;DHT22;8137;48.952;8.970;2023-07-31T11:23:48;23.60;99.90
16066;DHT22;8137;48.952;8.970;2023-07-31T11:26:15;23.70;99.80
16066;DHT22;8137;48.952;8.970;2023-07-31T11:28:40;23.90;99.40
16066;DHT22;8137;48.952;8.970;2023-07-31T11:31:10;23.90;99.30
16066;DHT22;8137;48.952;8.970;2023-07-31T11:33:36;23.90;98.40
16066;DHT22;8137;48.952;8.970;2023-07-31T11:36:02;23.80;98.60
16066;DHT22;8137;48.952;8.970;2023-07-31T11:38:29;23.90;99.90
16066;DHT22;8137;48.952;8.970;2023-07-31T11:40:59;24.10;98.80
16066;DHT22;8137;48.952;8.970;2023-07-31T11:43:25;24.40;99.50
16066;DHT22;8137;48.952;8.970;2023-07-31T11:45:59;24.70;99.60
16066;DHT22;8137;48.952;8.970;2023-07-31T11:48:29;25.20;97.60
16066;DHT22;8137;48.952;8.970;2023-07-31T11:50:57;25.70;96.50
16066;DHT22;8137;48.952;8.970;2023-07-31T11:53:37;25.80;95.70
16066;DHT22;8137;48.952;8.970;2023-07-31T11:56:04;25.40;92.50
16066;DHT22;8137;48.952;8.970;2023-07-31T11:58:32;24.80;90.70
16066;DHT22;8137;48.952;8.970;2023-07-31T12:00:58;24.60;90.70
16066;DHT22;8137;48.952;8.970;2023-07-31T12:03:25;24.70;91.80
16066;DHT22;8137;48.952;8.970;2023-07-31T12:05:52;24.50;92.50
16066;DHT22;8137;48.952;8.970;2023-07-31T12:08:21;24.30;92.00
16066;DHT22;8137;48.952;8.970;2023-07-31T12:10:50;24.10;93.70
16066;DHT22;8137;48.952;8.970;2023-07-31T12:13:22;23.90;92.20
16066;DHT22;8137;48.952;8.970;2023-07-31T12:15:48;23.90;95.40
16066;DHT22;8137;48.952;8.970;2023-07-31T12:18:15;23.60;91.90
16066;DHT22;8137;48.952;8.970;2023-07-31T12:20:43;23.80;94.30
16066;DHT22;8137;48.952;8.970;2023-07-31T12:23:16;23.90;94.00
16066;DHT22;8137;48.952;8.970;2023-07-31T12:25:42;24.10;92.90
16066;DHT22;8137;48.952;8.970;2023-07-31T12:28:08;24.30;93.80
16066;DHT22;8137;48.952;8.970;2023-07-31T12:30:38;24.40;92.60
16066;DHT22;8137;48.952;8.970;2023-07-31T12:33:05;24.60;93.10
16066;DHT22;8137;48.952;8.970;2023-07-31T12:35:38;24.90;94.00
16066;DHT22;8137;48.952;8.970;2023-07-31T12:38:04;25.20;91.20
16066;DHT22;8137;48.952;8.970;2023-07-31T12:40:30;25.10;90.50
16066;DHT22;8137;48.952;8.970;2023-07-31T12:42:55;24.90;87.40
16066;DHT22;8137;48.952;8.970;2023-07-31T12:45:21;24.60;87.40
16066;DHT22;8137;48.952;8.970;2023-07-31T12:47:47;24.40;86.60
16066;DHT22;8137;48.952;8.970;2023-07-31T12:50:12;24.20;90.90
16066;DHT22;8137;48.952;8.970;2023-07-31T12:52:38;24.20;93.10
16066;DHT22;8137;48.952;8.970;2023-07-31T12:55:04;24.00;92.40
16066;DHT22;8137;48.952;8.970;2023-07-31T12:57:30;23.90;93.30
16066;DHT22;8137;48.952;8.970;2023-07-31T12:59:55;23.90;94.10
16066;DHT22;8137;48.952;8.970;2023-07-31T13:02:21;23.90;93.50
16066;DHT22;8137;48.952;8.970;2023-07-31T13:04:47;23.90;94.20
16066;DHT22;8137;48.952;8.970;2023-07-31T13:07:12;23.80;92.70
16066;DHT22;8137;48.952;8.970;2023-07-31T13:09:38;23.90;93.40
16066;DHT22;8137;48.952;8.970;2023-07-31T13:12:04;24.10;93.10
16066;DHT22;8137;48.952;8.970;2023-07-31T13:14:29;24.00;92.20
16066;DHT22;8137;48.952;8.970;2023-07-31T13:16:55;24.00;92.00
16066;DHT22;8137;48.952;8.970;2023-07-31T13:19:21;24.20;93.00
16066;DHT22;8137;48.952;8.970;2023-07-31T13:21:46;24.50;92.50
16066;DHT22;8137;48.952;8.970;2023-07-31T13:24:12;24.60;91.30
16066;DHT22;8137;48.952;8.970;2023-07-31T13:26:38;24.60;89.20
16066;DHT22;8137;48.952;8.970;2023-07-31T13:29:03;24.60;88.70
16066;DHT22;8137;48.952;8.970;2023-07-31T13:31:29;24.50;91.10
16066;DHT22;8137;48.952;8.970;2023-07-31T13:33:55;24.40;90.70
16066;DHT22;8137;48.952;8.970;2023-07-31T13:36:20;24.10;92.00
16066;DHT22;8137;48.952;8.970;2023-07-31T13:38:46;24.00;90.90
16066;DHT22;8137;48.952;8.970;2023-07-31T13:41:11;24.00;91.90
16066;DHT22;8137;48.952;8.970;2023-07-31T13:43:37;24.10;93.40
16066;DHT22;8137;48.952;8.970;2023-07-31T13:46:03;24.30;94.40
16066;DHT22;8137;48.952;8.970;2023-07-31T13:48:34;24.30;91.80
16066;DHT22;8137;48.952;8.970;2023-07-31T13:50:59;24.40;92.30
16066;DHT22;8137;48.952;8.970;2023-07-31T13:53:25;24.60;91.10
16066;DHT22;8137;48.952;8.970;2023-07-31T13:55:51;24.50;90.90
16066;DHT22;8137;48.952;8.970;2023-07-31T13:58:17;24.40;91.50
16066;DHT22;8137;48.952;8.970;2023-07-31T14:00:42;24.40;93.70
16066;DHT22;8137;48.952;8.970;2023-07-31T14:03:08;24.30;91.60
16066;DHT22;8137;48.952;8.970;2023-07-31T14:05:34;24.20;90.80
16066;DHT22;8137;48.952;8.970;2023-07-31T14:08:00;24.00;91.20
16066;DHT22;8137;48.952;8.970;2023-07-31T14:10:25;23.80;92.10
16066;DHT22;8137;48.952;8.970;2023-07-31T14:12:51;23.80;92.60
16066;DHT22;8137;48.952;8.970;2023-07-31T14:15:16;23.80;94.80
16066;DHT22;8137;48.952;8.970;2023-07-31T14:17:42;24.00;94.10
16066;DHT22;8137;48.952;8.970;2023-07-31T14:20:08;24.00;93.20
16066;DHT22;8137;48.952;8.970;2023-07-31T14:22:34;24.20;94.60
16066;DHT22;8137;48.952;8.970;2023-07-31T14:25:00;24.30;93.20
16066;DHT22;8137;48.952;8.970;2023-07-31T14:27:26;24.20;92.90
16066;DHT22;8137;48.952;8.970;2023-07-31T14:29:51;24.20;93.60
16066;DHT22;8137;48.952;8.970;2023-07-31T14:32:17;24.00;93.90
16066;DHT22;8137;48.952;8.970;2023-07-31T14:34:43;24.00;95.00
16066;DHT22;8137;48.952;8.970;2023-07-31T14:37:08;24.10;95.60
16066;DHT22;8137;48.952;8.970;2023-07-31T14:39:34;24.00;96.20
16066;DHT22;8137;48.952;8.970;2023-07-31T14:41:59;23.90;96.40
16066;DHT22;8137;48.952;8.970;2023-07-31T14:44:25;23.90;95.20
16066;DHT22;8137;48.952;8.970;2023-07-31T14:46:50;23.70;93.30
16066;DHT22;8137;48.952;8.970;2023-07-31T14:49:16;23.50;94.40
16066;DHT22;8137;48.952;8.970;2023-07-31T14:51:42;23.20;94.70
16066;DHT22;8137;48.952;8.970;2023-07-31T14:54:08;23.10;95.90
16066;DHT22;8137;48.952;8.970;2023-07-31T14:56:34;22.90;97.00
16066;DHT22;8137;48.952;8.970;2023-07-31T14:58:59;22.90;98.00
16066;DHT22;8137;48.952;8.970;2023-07-31T15:01:25;22.70;97.00
16066;DHT22;8137;48.952;8.970;2023-07-31T15:03:51;22.80;98.40
16066;DHT22;8137;48.952;8.970;2023-07-31T15:06:16;22.90;97.90
16066;DHT22;8137;48.952;8.970;2023-07-31T15:08:42;23.00;98.40
16066;DHT22;8137;48.952;8.970;2023-07-31T15:11:09;23.10;98.50
16066;DHT22;8137;48.952;8.970;2023-07-31T15:13:35;23.30;96.90
16066;DHT22;8137;48.952;8.970;2023-07-31T15:16:00;23.40;97.90
16066;DHT22;8137;48.952;8.970;2023-07-31T15:18:26;23.80;98.90
16066;DHT22;8137;48.952;8.970;2023-07-31T15:20:53;24.00;96.60
16066;DHT22;8137;48.952;8.970;2023-07-31T15:23:18;24.00;94.70
16066;DHT22;8137;48.952;8.970;2023-07-31T15:25:44;24.10;94.90
16066;DHT22;8137;48.952;8.970;2023-07-31T15:28:09;24.20;94.70
16066;DHT22;8137;48.952;8.970;2023-07-31T15:30:38;24.30;94.80
16066;DHT22;8137;48.952;8.970;2023-07-31T15:33:04;24.40;94.40
16066;DHT22;8137;48.952;8.970;2023-07-31T15:35:29;24.60;93.10
16066;DHT22;8137;48.952;8.970;2023-07-31T15:37:55;24.50;91.50
16066;DHT22;8137;48.952;8.970;2023-07-31T15:40:21;24.50;90.60
16066;DHT22;8137;48.952;8.970;2023-07-31T15:42:46;24.50;90.80
16066;DHT22;8137;48.952;8.970;2023-07-31T15:45:12;24.60;93.00
16066;DHT22;8137;48.952;8.970;2023-07-31T15:47:37;24.70;90.80
16066;DHT22;8137;48.952;8.970;2023-07-31T15:50:03;24.80;91.10
16066;DHT22;8137;48.952;8.970;2023-07-31T15:52:29;24.80;90.80
16066;DHT22;8137;48.952;8.970;2023-07-31T15:54:55;24.90;93.50